createdAt,value
2022-12-27T00:00:06.785Z,5.65
2022-12-27T00:02:37.312Z,6.10
2022-12-27T00:05:05.501Z,7.40
2022-12-27T00:07:32.953Z,7.05
2022-12-27T00:10:01.289Z,7.45
2022-12-27T00:12:29.469Z,7.40
2022-12-27T00:14:56.770Z,6.85
2022-12-27T00:17:25.515Z,6.07
2022-12-27T00:19:53.000Z,7.35
2022-12-27T00:22:20.549Z,7.40
2022-12-27T00:24:48.091Z,7.47
2022-12-27T00:27:15.592Z,6.50
2022-12-27T00:29:43.012Z,6.10
2022-12-27T00:32:10.427Z,7.30
2022-12-27T00:34:37.941Z,7.15
2022-12-27T00:37:05.401Z,6.57
2022-12-27T00:39:32.856Z,6.90
2022-12-27T00:42:00.328Z,6.55
2022-12-27T00:44:28.222Z,6.55
2022-12-27T00:46:55.688Z,7.60
2022-12-27T00:49:23.189Z,7.10
2022-12-27T00:51:50.779Z,7.40
2022-12-27T00:54:18.228Z,6.45
2022-12-27T00:56:45.633Z,8.20
2022-12-27T00:59:13.121Z,6.43
2022-12-27T01:01:41.100Z,7.35
2022-12-27T01:04:08.725Z,6.30
2022-12-27T01:06:36.202Z,5.20
2022-12-27T01:09:04.181Z,7.60
2022-12-27T01:11:32.007Z,6.05
2022-12-27T01:14:00.702Z,5.65
2022-12-27T01:16:29.191Z,7.22
2022-12-27T01:18:56.791Z,6.15
2022-12-27T01:21:25.424Z,7.00
2022-12-27T01:23:52.833Z,5.82
2022-12-27T01:26:21.569Z,6.05
2022-12-27T01:28:49.191Z,5.75
2022-12-27T01:31:20.107Z,6.18
2022-12-27T01:33:47.850Z,6.18
2022-12-27T01:36:19.417Z,7.25
2022-12-27T01:38:48.235Z,6.05
2022-12-27T01:41:35.555Z,5.78
2022-12-27T01:44:37.859Z,7.60
2022-12-27T01:47:32.765Z,6.65
2022-12-27T01:50:14.706Z,6.80
2022-12-27T01:53:08.579Z,6.95
2022-12-27T01:55:57.188Z,7.78
2022-12-27T01:58:43.341Z,8.27
2022-12-27T02:01:21.856Z,7.32
2022-12-27T02:03:54.843Z,8.90
2022-12-27T02:06:23.103Z,8.98
2022-12-27T02:08:59.474Z,9.27
2022-12-27T02:11:51.656Z,10.20
2022-12-27T02:14:29.593Z,11.13
2022-12-27T02:16:58.744Z,10.73
2022-12-27T02:19:42.464Z,11.93
2022-12-27T02:22:29.098Z,12.27
2022-12-27T02:25:31.899Z,10.90
2022-12-27T02:28:43.336Z,9.98
2022-12-27T02:31:14.277Z,11.95
2022-12-27T02:36:40.644Z,11.80
2022-12-27T02:39:08.080Z,10.50
2022-12-27T02:41:54.570Z,10.88
2022-12-27T02:44:40.411Z,11.45
2022-12-27T02:47:38.532Z,11.02
2022-12-27T02:50:25.457Z,10.50
2022-12-27T02:53:17.000Z,10.77
2022-12-27T02:56:24.921Z,12.10
2022-12-27T02:59:13.512Z,10.75
2022-12-27T03:02:18.681Z,11.32
2022-12-27T03:05:30.154Z,10.57
2022-12-27T03:08:11.678Z,9.25
2022-12-27T03:11:11.353Z,10.48
2022-12-27T03:14:34.941Z,10.45
2022-12-27T03:17:06.000Z,8.82
2022-12-27T03:20:02.500Z,10.07
2022-12-27T03:22:49.009Z,9.15
2022-12-27T03:25:28.403Z,9.35
2022-12-27T03:28:29.231Z,10.40
2022-12-27T03:31:24.752Z,9.03
2022-12-27T03:33:59.841Z,8.57
2022-12-27T03:37:05.625Z,8.48
2022-12-27T03:39:34.740Z,8.18
2022-12-27T03:42:23.400Z,9.57
2022-12-27T03:44:52.461Z,10.35
2022-12-27T03:47:50.643Z,9.38
2022-12-27T03:50:28.997Z,8.77
2022-12-27T03:53:08.285Z,8.30
2022-12-27T03:55:36.605Z,8.63
2022-12-27T03:58:03.956Z,9.57
2022-12-27T04:00:31.528Z,8.90
2022-12-27T04:02:59.040Z,9.48
2022-12-27T04:05:26.495Z,6.85
2022-12-27T04:08:12.633Z,7.13
2022-12-27T04:10:58.707Z,6.65
2022-12-27T04:13:45.021Z,6.97
2022-12-27T04:16:30.947Z,5.88
2022-12-27T04:19:16.987Z,6.28
2022-12-27T04:22:02.734Z,7.65
2022-12-27T04:24:48.925Z,6.93
2022-12-27T04:27:34.829Z,6.18
2022-12-27T04:30:20.830Z,6.30
2022-12-27T04:33:06.922Z,5.05
2022-12-27T04:35:34.376Z,6.68
2022-12-27T04:38:02.000Z,4.75
2022-12-27T04:40:47.992Z,5.78
2022-12-27T04:43:34.993Z,5.85
2022-12-27T04:46:21.228Z,6.47
2022-12-27T04:49:07.002Z,5.75
2022-12-27T04:51:53.021Z,5.90
2022-12-27T04:54:41.152Z,5.93
2022-12-27T04:57:08.554Z,6.28
2022-12-27T04:59:54.758Z,5.93
2022-12-27T05:02:22.619Z,5.60
2022-12-27T05:04:50.411Z,5.63
2022-12-27T05:07:36.186Z,5.30
2022-12-27T05:10:23.387Z,5.70
2022-12-27T05:13:10.437Z,5.50
2022-12-27T05:15:37.774Z,6.03
2022-12-27T05:18:05.249Z,5.18
2022-12-27T05:20:36.281Z,4.53
2022-12-27T05:23:22.481Z,5.53
2022-12-27T05:25:50.002Z,5.22
2022-12-27T05:28:17.576Z,5.20
2022-12-27T05:30:45.070Z,6.00
2022-12-27T05:33:12.824Z,5.70
2022-12-27T05:35:40.437Z,6.15
2022-12-27T05:38:07.879Z,5.05
2022-12-27T05:40:35.811Z,5.05
2022-12-27T05:43:03.638Z,5.20
2022-12-27T05:45:31.079Z,5.57
2022-12-27T05:47:59.075Z,4.85
2022-12-27T05:50:26.595Z,5.65
2022-12-27T05:52:54.090Z,4.63
2022-12-27T05:55:21.745Z,5.13
2022-12-27T05:57:49.315Z,5.18
2022-12-27T06:00:17.082Z,4.93
2022-12-27T06:02:45.053Z,3.75
2022-12-27T06:05:12.606Z,4.68
2022-12-27T06:07:42.500Z,5.40
2022-12-27T06:10:10.446Z,5.32
2022-12-27T06:12:38.306Z,5.32
2022-12-27T06:15:06.400Z,5.15
2022-12-27T06:17:33.982Z,5.20
2022-12-27T06:20:01.585Z,5.15
2022-12-27T06:22:29.074Z,4.15
2022-12-27T06:24:57.234Z,4.03
2022-12-27T06:27:24.796Z,3.88
2022-12-27T06:29:52.288Z,5.28
2022-12-27T06:32:19.792Z,4.95
2022-12-27T06:34:47.320Z,4.03
2022-12-27T06:37:14.916Z,4.22
2022-12-27T06:39:42.334Z,4.00
2022-12-27T06:42:09.843Z,4.10
2022-12-27T06:44:37.284Z,4.50
2022-12-27T06:47:04.775Z,3.60
2022-12-27T06:49:32.591Z,4.45
2022-12-27T06:52:00.060Z,4.40
2022-12-27T06:54:27.612Z,3.70
2022-12-27T06:56:56.370Z,3.35
2022-12-27T07:01:53.803Z,5.20
2022-12-27T07:04:21.408Z,4.97
2022-12-27T07:06:48.814Z,3.90
2022-12-27T07:09:16.881Z,4.55
2022-12-27T07:11:45.666Z,3.47
2022-12-27T07:14:13.505Z,4.20
2022-12-27T07:16:43.283Z,3.45
2022-12-27T07:19:10.960Z,4.13
2022-12-27T07:21:38.371Z,3.53
2022-12-27T07:24:06.330Z,4.72
2022-12-27T07:26:33.816Z,3.33
2022-12-27T07:29:01.463Z,4.10
2022-12-27T07:31:31.144Z,3.22
2022-12-27T07:33:59.069Z,4.13
2022-12-27T07:36:29.665Z,5.22
2022-12-27T07:38:57.014Z,5.53
2022-12-27T07:41:26.006Z,6.32
2022-12-27T07:43:53.582Z,8.00
2022-12-27T07:46:22.916Z,6.90
2022-12-27T07:48:50.942Z,7.75
2022-12-27T07:51:18.355Z,6.78
2022-12-27T07:53:48.109Z,7.30
2022-12-27T07:56:23.462Z,6.65
2022-12-27T07:58:53.381Z,6.88
2022-12-27T08:01:24.161Z,5.50
2022-12-27T08:03:51.624Z,6.15
2022-12-27T08:06:24.497Z,5.18
2022-12-27T08:08:52.257Z,6.50
2022-12-27T08:11:20.926Z,6.03
2022-12-27T08:13:49.140Z,5.03
2022-12-27T08:16:20.646Z,6.07
2022-12-27T08:18:48.459Z,4.95
2022-12-27T08:21:16.133Z,5.75
2022-12-27T08:23:43.612Z,5.00
2022-12-27T08:26:11.020Z,4.13
2022-12-27T08:28:38.506Z,4.68
2022-12-27T08:31:08.243Z,4.28
2022-12-27T08:33:37.181Z,4.88
2022-12-27T08:39:07.481Z,5.60
2022-12-27T08:41:35.611Z,5.78
2022-12-27T08:44:03.159Z,6.20
2022-12-27T08:46:30.821Z,7.85
2022-12-27T08:48:59.692Z,7.97
2022-12-27T08:51:36.021Z,3.95
2022-12-27T08:54:10.348Z,5.10
2022-12-27T08:56:37.911Z,6.10
2022-12-27T08:59:05.511Z,6.15
2022-12-27T09:01:33.495Z,5.38
2022-12-27T09:04:01.406Z,6.10
2022-12-27T09:06:29.770Z,5.72
2022-12-27T09:08:58.027Z,6.13
2022-12-27T09:11:30.267Z,5.85
2022-12-27T09:13:58.890Z,6.57
2022-12-27T09:16:29.417Z,5.90
2022-12-27T09:18:58.026Z,7.80
2022-12-27T09:21:27.528Z,7.88
2022-12-27T09:23:55.255Z,7.15
2022-12-27T09:26:24.676Z,7.18
2022-12-27T09:28:53.164Z,8.13
2022-12-27T09:31:21.808Z,7.85
2022-12-27T09:33:49.326Z,8.27
2022-12-27T09:36:21.425Z,7.00
2022-12-27T09:38:49.191Z,8.70
2022-12-27T09:42:43.763Z,5.57
2022-12-27T09:45:05.441Z,5.38
2022-12-27T09:47:53.757Z,6.18
2022-12-27T09:50:35.774Z,5.13
2022-12-27T09:53:25.024Z,5.68
2022-12-27T09:55:56.455Z,5.32
2022-12-27T09:58:55.634Z,6.38
2022-12-27T10:01:24.524Z,4.57
2022-12-27T10:03:54.297Z,5.00
2022-12-27T10:06:30.801Z,5.20
2022-12-27T10:09:32.571Z,5.38
2022-12-27T10:15:17.889Z,4.43
2022-12-27T10:18:20.126Z,5.70
2022-12-27T10:21:06.092Z,4.60
2022-12-27T10:23:35.109Z,4.07
2022-12-27T10:26:05.594Z,4.70
2022-12-27T10:28:43.125Z,5.03
2022-12-27T10:31:17.280Z,4.40
2022-12-27T10:33:47.376Z,3.85
2022-12-27T10:36:16.999Z,4.00
2022-12-27T10:38:47.171Z,4.28
2022-12-27T10:41:33.636Z,5.10
2022-12-27T10:44:01.245Z,4.78
2022-12-27T10:46:33.085Z,5.40
2022-12-27T10:49:22.075Z,4.72
2022-12-27T10:51:51.164Z,5.07
2022-12-27T10:54:24.313Z,6.30
2022-12-27T10:56:52.365Z,6.85
2022-12-27T10:59:22.733Z,6.55
2022-12-27T11:02:01.905Z,7.78
2022-12-27T11:04:30.761Z,6.65
2022-12-27T11:07:04.345Z,6.95
2022-12-27T11:09:32.692Z,6.97
2022-12-27T11:12:21.213Z,5.88
2022-12-27T11:14:58.757Z,6.80
2022-12-27T11:17:41.126Z,6.80
2022-12-27T11:20:12.252Z,7.18
2022-12-27T11:22:49.609Z,7.50
2022-12-27T11:25:17.202Z,7.28
2022-12-27T11:27:49.676Z,7.55
2022-12-27T11:30:28.851Z,7.18
2022-12-27T11:33:01.316Z,7.95
2022-12-27T11:35:28.903Z,7.70
2022-12-27T11:37:56.987Z,8.30
2022-12-27T11:40:26.072Z,7.57
2022-12-27T11:42:59.395Z,9.25
2022-12-27T11:45:39.926Z,9.95
2022-12-27T11:48:20.085Z,10.83
2022-12-27T11:51:06.265Z,10.90
2022-12-27T11:54:04.442Z,8.27
2022-12-27T11:56:34.954Z,9.43
2022-12-27T11:59:22.803Z,8.55
2022-12-27T12:02:08.561Z,9.85
2022-12-27T12:04:51.782Z,9.93
2022-12-27T12:07:28.158Z,9.90
2022-12-27T12:10:33.908Z,10.30
2022-12-27T12:13:14.204Z,9.82
2022-12-27T12:16:18.792Z,11.20
2022-12-27T12:19:11.000Z,11.18
2022-12-27T12:21:59.471Z,10.23
2022-12-27T12:24:43.717Z,10.93
2022-12-27T12:27:22.287Z,11.05
2022-12-27T12:30:43.871Z,10.18
2022-12-27T12:33:22.690Z,10.00
2022-12-27T12:36:09.082Z,11.93
2022-12-27T12:39:14.604Z,10.70
2022-12-27T12:41:50.746Z,11.60
2022-12-27T12:44:29.812Z,12.63
2022-12-27T12:47:08.547Z,11.63
2022-12-27T12:50:14.495Z,11.57
2022-12-27T12:53:00.328Z,12.20
2022-12-27T12:55:56.767Z,12.40
2022-12-27T12:58:32.874Z,11.13
2022-12-27T13:01:03.346Z,13.20
2022-12-27T13:03:39.308Z,11.65
2022-12-27T13:06:44.911Z,13.38
2022-12-27T13:09:15.416Z,14.18
2022-12-27T13:14:21.574Z,13.45
2022-12-27T13:16:58.792Z,12.63
2022-12-27T13:19:44.290Z,13.07
2022-12-27T13:22:14.714Z,13.13
2022-12-27T13:25:26.924Z,14.18
2022-12-27T13:27:59.772Z,12.65
2022-12-27T13:30:50.994Z,13.25
2022-12-27T13:33:33.612Z,12.85
2022-12-27T13:36:21.046Z,13.23
2022-12-27T13:39:28.213Z,12.65
2022-12-27T13:42:13.805Z,15.57
2022-12-27T13:44:59.377Z,16.00
2022-12-27T13:47:34.722Z,13.98
2022-12-27T13:50:37.702Z,13.05
2022-12-27T13:53:37.018Z,13.27
2022-12-27T13:56:52.823Z,12.70
2022-12-27T13:59:27.064Z,10.93
2022-12-27T14:01:54.472Z,13.38
2022-12-27T14:04:31.238Z,13.15
2022-12-27T14:07:21.695Z,12.23
2022-12-27T14:10:20.850Z,11.60
2022-12-27T14:12:55.039Z,13.73
2022-12-27T14:15:25.082Z,13.05
2022-12-27T14:18:12.890Z,14.57
2022-12-27T14:20:43.228Z,12.77
2022-12-27T14:23:17.284Z,12.20
2022-12-27T14:26:03.015Z,13.48
2022-12-27T14:29:15.281Z,12.90
2022-12-27T14:32:09.340Z,12.55
2022-12-27T14:34:39.841Z,12.63
2022-12-27T14:37:13.331Z,14.00
2022-12-27T14:40:08.629Z,13.73
2022-12-27T14:43:01.547Z,13.07
2022-12-27T14:46:06.282Z,11.50
2022-12-27T14:49:12.798Z,12.63
2022-12-27T14:52:01.079Z,13.30
2022-12-27T14:54:38.026Z,13.30
2022-12-27T14:57:27.495Z,13.65
2022-12-27T15:00:16.920Z,14.15
2022-12-27T15:03:15.391Z,15.60
2022-12-27T15:05:48.463Z,15.90
2022-12-27T15:08:16.527Z,17.40
2022-12-27T15:11:02.070Z,16.42
2022-12-27T15:14:11.651Z,18.15
2022-12-27T15:16:52.639Z,15.23
2022-12-27T15:19:29.845Z,14.32
2022-12-27T15:22:00.323Z,14.05
2022-12-27T15:24:50.113Z,14.90
2022-12-27T15:27:40.759Z,14.23
2022-12-27T15:30:10.803Z,15.48
2022-12-27T15:32:53.534Z,14.25
2022-12-27T15:35:50.067Z,13.30
2022-12-27T15:38:42.737Z,13.02
2022-12-27T15:41:22.798Z,13.27
2022-12-27T15:44:33.642Z,13.18
2022-12-27T15:47:22.928Z,13.37
2022-12-27T15:50:18.157Z,13.73
2022-12-27T15:52:53.255Z,16.60
2022-12-27T15:55:38.335Z,18.83
2022-12-27T15:58:13.577Z,17.95
2022-12-27T16:00:42.110Z,18.40
2022-12-27T16:03:33.847Z,19.52
2022-12-27T16:08:29.238Z,15.45
2022-12-27T16:10:57.414Z,17.40
2022-12-27T16:13:41.440Z,19.88
2022-12-27T16:16:12.330Z,17.35
2022-12-27T16:18:51.809Z,20.17
2022-12-27T16:21:26.959Z,25.85
2022-12-27T16:24:01.854Z,21.25
2022-12-27T16:26:33.401Z,20.90
2022-12-27T16:29:10.003Z,18.10
2022-12-27T16:31:45.157Z,16.65
2022-12-27T16:34:14.743Z,20.48
2022-12-27T16:36:46.942Z,20.80
2022-12-27T16:39:45.380Z,17.95
2022-12-27T16:42:14.214Z,18.73
2022-12-27T16:45:06.054Z,15.55
2022-12-27T16:50:41.336Z,17.30
2022-12-27T16:53:23.742Z,20.27
2022-12-27T16:56:07.168Z,17.13
2022-12-27T16:58:36.505Z,19.08
2022-12-27T17:01:05.945Z,17.88
2022-12-27T17:03:36.425Z,18.90
2022-12-27T17:06:32.003Z,18.77
2022-12-27T17:09:09.940Z,16.17
2022-12-27T17:12:03.700Z,15.85
2022-12-27T17:14:35.572Z,20.48
2022-12-27T17:17:04.257Z,17.17
2022-12-27T17:19:40.016Z,19.45
2022-12-27T17:22:08.048Z,17.08
2022-12-27T17:24:35.710Z,25.65
2022-12-27T17:27:12.553Z,17.90
2022-12-27T17:29:45.786Z,16.30
2022-12-27T17:32:35.201Z,17.48
2022-12-27T17:35:25.841Z,16.48
2022-12-27T17:38:09.198Z,17.23
2022-12-27T17:44:01.460Z,15.52
2022-12-27T17:46:38.993Z,19.50
2022-12-27T17:49:07.079Z,16.27
2022-12-27T17:51:34.719Z,19.65
2022-12-27T17:54:21.562Z,20.40
2022-12-27T17:57:16.116Z,21.02
2022-12-27T17:59:44.997Z,21.23
2022-12-27T18:02:42.071Z,20.35
2022-12-27T18:05:13.597Z,17.98
2022-12-27T18:10:24.530Z,16.88
2022-12-27T18:13:19.817Z,19.52
2022-12-27T18:15:47.810Z,16.83
2022-12-27T18:18:24.645Z,19.33
2022-12-27T18:20:54.900Z,16.45
2022-12-27T18:23:22.356Z,17.48
2022-12-27T18:26:01.649Z,17.95
2022-12-27T18:28:33.788Z,16.65
2022-12-27T18:31:13.857Z,18.70
2022-12-27T18:34:04.248Z,17.83
2022-12-27T18:36:52.228Z,17.45
2022-12-27T18:39:50.624Z,18.35
2022-12-27T18:42:30.549Z,16.90
2022-12-27T18:45:01.124Z,18.77
2022-12-27T18:47:28.711Z,18.15
2022-12-27T18:49:58.414Z,18.35
2022-12-27T18:52:31.314Z,15.95
2022-12-27T18:55:22.139Z,17.42
2022-12-27T18:57:49.624Z,17.25
2022-12-27T19:00:25.790Z,18.05
2022-12-27T19:02:54.326Z,16.75
2022-12-27T19:05:23.346Z,16.90
2022-12-27T19:07:59.524Z,18.40
2022-12-27T19:10:28.547Z,17.20
2022-12-27T19:12:56.044Z,19.13
2022-12-27T19:15:28.131Z,17.15
2022-12-27T19:17:59.139Z,17.52
2022-12-27T19:20:33.660Z,18.83
2022-12-27T19:23:05.812Z,18.50
2022-12-27T19:25:35.341Z,19.95
2022-12-27T19:28:23.117Z,17.30
2022-12-27T19:31:19.964Z,18.20
2022-12-27T19:33:55.851Z,17.00
2022-12-27T19:36:30.435Z,16.52
2022-12-27T19:38:58.615Z,16.58
2022-12-27T19:41:26.256Z,15.30
2022-12-27T19:43:53.991Z,15.98
2022-12-27T19:46:27.104Z,16.75
2022-12-27T19:51:45.328Z,16.48
2022-12-27T19:54:20.730Z,17.00
2022-12-27T19:56:48.455Z,15.82
2022-12-27T19:59:20.206Z,16.35
2022-12-27T20:01:47.906Z,15.45
2022-12-27T20:04:16.951Z,16.23
2022-12-27T20:06:46.304Z,16.92
2022-12-27T20:09:17.496Z,17.08
2022-12-27T20:11:44.935Z,16.02
2022-12-27T20:14:13.266Z,16.13
2022-12-27T20:16:41.049Z,19.65
2022-12-27T20:19:10.607Z,19.27
2022-12-27T20:21:39.333Z,19.05
2022-12-27T20:24:07.258Z,18.40
2022-12-27T20:26:35.081Z,17.42
2022-12-27T20:29:02.745Z,17.35
2022-12-27T20:31:31.297Z,17.85
2022-12-27T20:33:58.826Z,18.45
2022-12-27T20:36:26.196Z,18.50
2022-12-27T20:38:53.679Z,19.25
2022-12-27T20:41:21.443Z,19.85
2022-12-27T20:43:53.723Z,22.25
2022-12-27T20:46:21.411Z,20.85
2022-12-27T20:48:48.973Z,21.08
2022-12-27T20:51:18.063Z,20.48
2022-12-27T20:53:45.702Z,23.63
2022-12-27T20:56:16.815Z,22.05
2022-12-27T20:58:44.274Z,20.02
2022-12-27T21:01:13.844Z,19.20
2022-12-27T21:03:41.620Z,20.80
2022-12-27T21:06:12.830Z,22.15
2022-12-27T21:11:17.559Z,19.85
2022-12-27T21:13:45.496Z,18.70
2022-12-27T21:16:14.942Z,20.98
2022-12-27T21:18:42.491Z,18.65
2022-12-27T21:21:12.491Z,21.27
2022-12-27T21:23:40.866Z,18.73
2022-12-27T21:26:10.457Z,18.27
2022-12-27T21:28:37.941Z,24.42
2022-12-27T21:31:06.448Z,22.13
2022-12-27T21:33:36.041Z,18.42
2022-12-27T21:36:08.502Z,18.20
2022-12-27T21:38:36.070Z,17.95
2022-12-27T21:41:05.901Z,19.33
2022-12-27T21:43:33.530Z,20.02
2022-12-27T21:46:08.366Z,17.80
2022-12-27T21:48:37.867Z,16.30
2022-12-27T21:51:13.099Z,15.57
2022-12-27T21:53:40.589Z,16.08
2022-12-27T21:56:08.260Z,18.13
2022-12-27T21:58:37.757Z,16.38
2022-12-27T22:01:09.303Z,15.40
2022-12-27T22:03:38.231Z,16.92
2022-12-27T22:06:17.931Z,15.97
2022-12-27T22:08:46.905Z,16.08
2022-12-27T22:11:14.626Z,16.15
2022-12-27T22:13:42.740Z,16.73
2022-12-27T22:16:24.430Z,18.98
2022-12-27T22:18:52.149Z,17.52
2022-12-27T22:21:21.378Z,16.48
2022-12-27T22:23:50.254Z,18.17
2022-12-27T22:26:23.316Z,15.23
2022-12-27T22:28:50.876Z,17.33
2022-12-27T22:31:20.384Z,18.08
2022-12-27T22:33:48.519Z,17.77
2022-12-27T22:36:21.029Z,14.85
2022-12-27T22:38:50.365Z,14.90
2022-12-27T22:41:22.022Z,15.43
2022-12-27T22:43:51.590Z,13.35
2022-12-27T22:46:19.250Z,13.27
2022-12-27T22:48:51.666Z,13.30
2022-12-27T22:51:22.898Z,12.82
2022-12-27T22:53:50.913Z,11.77
2022-12-27T22:56:21.177Z,13.05
2022-12-27T22:58:48.867Z,11.20
2022-12-27T23:01:20.405Z,9.60
2022-12-27T23:03:48.260Z,9.45
2022-12-27T23:06:15.751Z,7.93
2022-12-27T23:08:44.825Z,7.30
2022-12-27T23:11:13.493Z,9.20
2022-12-27T23:13:41.082Z,8.98
2022-12-27T23:16:08.641Z,11.57
2022-12-27T23:18:36.822Z,10.65
2022-12-27T23:21:21.118Z,10.95
2022-12-27T23:23:51.997Z,6.32
2022-12-27T23:26:21.275Z,3.67
2022-12-27T23:28:49.076Z,3.10
2022-12-27T23:31:16.646Z,2.28
2022-12-27T23:33:44.137Z,2.33
2022-12-27T23:36:12.597Z,1.90
2022-12-27T23:38:43.085Z,2.20
2022-12-27T23:41:23.834Z,1.73
2022-12-27T23:43:55.463Z,1.88
2022-12-27T23:48:51.896Z,2.42
2022-12-27T23:51:19.467Z,2.22
2022-12-27T23:53:47.059Z,1.92
2022-12-27T23:56:18.422Z,1.80
2022-12-27T23:58:46.534Z,2.25
